createdAt,value
2022-12-26T00:01:27.221Z,84.54
2022-12-26T00:04:51.424Z,84.61
2022-12-26T00:07:41.174Z,84.67
2022-12-26T00:10:47.151Z,84.72
2022-12-26T00:13:53.598Z,84.74
2022-12-26T00:17:01.072Z,84.75
2022-12-26T00:20:07.403Z,84.68
2022-12-26T00:23:15.531Z,84.56
2022-12-26T00:26:24.123Z,84.45
2022-12-26T00:29:29.759Z,84.32
2022-12-26T00:32:35.460Z,84.29
2022-12-26T00:35:41.203Z,84.45
2022-12-26T00:38:48.601Z,84.44
2022-12-26T00:41:54.440Z,84.46
2022-12-26T00:45:00.479Z,84.53
2022-12-26T00:48:08.337Z,84.44
2022-12-26T00:51:13.580Z,84.40
2022-12-26T00:54:19.903Z,84.37
2022-12-26T00:57:26.483Z,84.35
2022-12-26T01:00:33.669Z,84.40
2022-12-26T01:03:41.086Z,84.46
2022-12-26T01:06:47.545Z,84.61
2022-12-26T01:09:52.841Z,84.65
2022-12-26T01:12:59.035Z,84.67
2022-12-26T01:16:06.388Z,84.65
2022-12-26T01:19:12.965Z,84.68
2022-12-26T01:22:19.415Z,84.76
2022-12-26T01:25:28.204Z,84.69
2022-12-26T01:28:35.041Z,84.76
2022-12-26T01:31:41.281Z,84.68
2022-12-26T01:34:48.707Z,84.77
2022-12-26T01:37:55.193Z,84.79
2022-12-26T01:41:03.612Z,84.73
2022-12-26T01:44:16.879Z,84.81
2022-12-26T01:47:23.019Z,84.78
2022-12-26T01:50:43.343Z,84.69
2022-12-26T01:54:41.082Z,84.57
2022-12-26T01:57:08.498Z,84.59
2022-12-26T02:00:15.445Z,84.67
2022-12-26T02:03:25.375Z,84.70
2022-12-26T02:06:30.741Z,84.65
2022-12-26T02:09:36.861Z,84.65
2022-12-26T02:12:47.961Z,84.65
2022-12-26T02:19:07.284Z,84.65
2022-12-26T02:22:42.717Z,84.64
2022-12-26T02:26:27.925Z,84.55
2022-12-26T02:29:45.409Z,84.39
2022-12-26T02:33:17.687Z,84.38
2022-12-26T02:37:14.855Z,84.45
2022-12-26T02:40:36.771Z,84.57
2022-12-26T02:43:55.625Z,84.51
2022-12-26T02:47:11.434Z,84.31
2022-12-26T02:50:48.154Z,84.35
2022-12-26T02:54:39.122Z,84.19
2022-12-26T02:58:21.107Z,84.16
2022-12-26T03:02:01.757Z,84.37
2022-12-26T03:05:25.525Z,84.46
2022-12-26T03:08:54.821Z,84.59
2022-12-26T03:12:21.344Z,84.53
2022-12-26T03:15:31.115Z,84.47
2022-12-26T03:18:57.682Z,84.47
2022-12-26T03:21:56.449Z,84.49
2022-12-26T03:25:20.415Z,84.43
2022-12-26T03:28:26.804Z,84.50
2022-12-26T03:31:33.579Z,84.50
2022-12-26T03:34:39.328Z,84.57
2022-12-26T03:37:50.532Z,84.54
2022-12-26T03:41:30.517Z,84.54
2022-12-26T03:45:01.879Z,84.47
2022-12-26T03:48:36.452Z,84.37
2022-12-26T03:52:04.650Z,84.28
2022-12-26T03:55:39.745Z,84.33
2022-12-26T03:59:14.164Z,84.35
2022-12-26T04:02:39.717Z,84.31
2022-12-26T04:06:08.654Z,84.24
2022-12-26T04:09:40.895Z,84.10
2022-12-26T04:13:04.853Z,83.99
2022-12-26T04:16:44.554Z,84.01
2022-12-26T04:19:58.504Z,84.00
2022-12-26T04:23:44.176Z,84.10
2022-12-26T04:27:17.256Z,84.13
2022-12-26T04:30:44.197Z,84.24
2022-12-26T04:34:32.758Z,84.28
2022-12-26T04:37:58.078Z,84.33
2022-12-26T04:41:25.478Z,84.42
2022-12-26T04:44:32.391Z,84.52
2022-12-26T04:47:39.227Z,84.58
2022-12-26T04:50:45.420Z,84.61
2022-12-26T04:53:50.001Z,84.58
2022-12-26T04:56:56.024Z,84.64
2022-12-26T05:00:01.650Z,84.71
2022-12-26T05:03:26.204Z,84.62
2022-12-26T05:06:50.919Z,84.71
2022-12-26T05:09:58.830Z,84.70
2022-12-26T05:13:04.230Z,84.81
2022-12-26T05:16:27.568Z,84.86
2022-12-26T05:19:50.528Z,84.87
2022-12-26T05:23:16.874Z,84.91
2022-12-26T05:26:52.870Z,84.86
2022-12-26T05:29:58.249Z,84.85
2022-12-26T05:33:21.265Z,84.81
2022-12-26T05:36:25.015Z,84.78
2022-12-26T05:39:31.810Z,84.68
2022-12-26T05:42:38.353Z,84.70
2022-12-26T05:45:44.837Z,84.68
2022-12-26T05:48:50.495Z,84.52
2022-12-26T05:51:56.306Z,84.42
2022-12-26T05:55:04.789Z,84.39
2022-12-26T05:58:14.707Z,84.46
2022-12-26T06:01:23.404Z,84.50
2022-12-26T06:04:29.501Z,84.68
2022-12-26T06:07:35.427Z,84.66
2022-12-26T06:10:41.882Z,84.64
2022-12-26T06:13:46.740Z,84.66
2022-12-26T06:16:52.284Z,84.58
2022-12-26T06:20:00.402Z,84.49
2022-12-26T06:23:08.637Z,84.46
2022-12-26T06:26:22.895Z,84.54
2022-12-26T06:29:28.647Z,84.58
2022-12-26T06:32:35.458Z,84.68
2022-12-26T06:35:42.374Z,84.67
2022-12-26T06:38:54.232Z,84.54
2022-12-26T06:42:04.846Z,84.48
2022-12-26T06:45:11.591Z,84.51
2022-12-26T06:48:19.621Z,84.46
2022-12-26T06:51:31.683Z,84.49
2022-12-26T06:54:38.839Z,84.52
2022-12-26T06:57:43.553Z,84.37
2022-12-26T07:00:50.745Z,84.41
2022-12-26T07:03:58.743Z,84.36
2022-12-26T07:07:06.215Z,84.30
2022-12-26T07:10:11.562Z,84.39
2022-12-26T07:13:17.495Z,84.21
2022-12-26T07:16:28.844Z,84.14
2022-12-26T07:19:34.667Z,84.29
2022-12-26T07:22:39.663Z,84.45
2022-12-26T07:25:46.528Z,84.47
2022-12-26T07:28:53.019Z,84.42
2022-12-26T07:31:59.609Z,84.49
2022-12-26T07:35:05.422Z,84.58
2022-12-26T07:38:10.717Z,84.50
2022-12-26T07:41:34.925Z,84.56
2022-12-26T07:44:46.337Z,84.57
2022-12-26T07:47:53.798Z,84.42
2022-12-26T07:51:00.550Z,84.41
2022-12-26T07:54:11.309Z,84.40
2022-12-26T08:00:28.940Z,84.31
2022-12-26T08:03:35.691Z,84.24
2022-12-26T08:06:49.742Z,84.38
2022-12-26T08:10:14.721Z,84.27
2022-12-26T08:13:30.339Z,84.27
2022-12-26T08:16:37.853Z,84.31
2022-12-26T08:19:43.801Z,84.28
2022-12-26T08:22:48.951Z,84.17
2022-12-26T08:26:05.233Z,84.15
2022-12-26T08:29:16.460Z,84.22
2022-12-26T08:32:23.216Z,84.26
2022-12-26T08:35:32.121Z,84.15
2022-12-26T08:38:37.903Z,84.09
2022-12-26T08:41:44.040Z,84.12
2022-12-26T08:44:49.854Z,84.19
2022-12-26T08:47:56.277Z,84.18
2022-12-26T08:51:07.305Z,84.18
2022-12-26T08:54:15.879Z,84.18
2022-12-26T08:57:22.836Z,84.26
2022-12-26T09:00:32.908Z,84.22
2022-12-26T09:03:41.479Z,84.18
2022-12-26T09:06:49.825Z,84.10
2022-12-26T09:09:56.016Z,84.11
2022-12-26T09:13:03.165Z,84.14
2022-12-26T09:16:08.133Z,84.03
2022-12-26T09:19:15.235Z,83.95
2022-12-26T09:22:40.696Z,83.90
2022-12-26T09:25:47.242Z,83.80
2022-12-26T09:28:53.591Z,83.75
2022-12-26T09:32:00.119Z,83.63
2022-12-26T09:35:09.138Z,83.64
2022-12-26T09:38:16.752Z,83.71
2022-12-26T09:41:38.258Z,83.65
2022-12-26T09:44:54.330Z,83.67
2022-12-26T09:48:11.729Z,83.77
2022-12-26T09:51:17.285Z,83.79
2022-12-26T09:54:25.459Z,83.63
2022-12-26T09:57:40.200Z,83.76
2022-12-26T10:01:07.891Z,83.76
2022-12-26T10:04:15.481Z,83.72
2022-12-26T10:07:55.645Z,83.80
2022-12-26T10:11:16.475Z,83.84
2022-12-26T10:14:56.158Z,83.89
2022-12-26T10:18:28.604Z,83.94
2022-12-26T10:22:05.485Z,83.93
2022-12-26T10:25:13.023Z,83.90
2022-12-26T10:28:19.384Z,83.68
2022-12-26T10:31:45.909Z,83.73
2022-12-26T10:34:56.805Z,83.72
2022-12-26T10:38:02.351Z,83.71
2022-12-26T10:41:08.434Z,83.67
2022-12-26T10:44:13.877Z,83.65
2022-12-26T10:47:30.281Z,83.68
2022-12-26T10:50:42.027Z,83.74
2022-12-26T10:53:47.958Z,83.81
2022-12-26T10:56:53.133Z,83.79
2022-12-26T11:00:10.580Z,83.77
2022-12-26T11:03:29.057Z,83.79
2022-12-26T11:06:36.381Z,83.87
2022-12-26T11:09:57.015Z,83.87
2022-12-26T11:13:16.179Z,83.81
2022-12-26T11:16:22.625Z,83.85
2022-12-26T11:19:52.190Z,83.97
2022-12-26T11:22:59.865Z,83.89
2022-12-26T11:26:10.809Z,83.90
2022-12-26T11:29:48.480Z,83.83
2022-12-26T11:33:02.339Z,83.83
2022-12-26T11:36:20.489Z,83.82
2022-12-26T11:39:41.972Z,83.83
2022-12-26T11:42:47.980Z,83.81
2022-12-26T11:45:57.610Z,83.75
2022-12-26T11:49:06.347Z,83.76
2022-12-26T11:52:12.089Z,83.82
2022-12-26T11:55:19.021Z,83.85
2022-12-26T11:58:36.764Z,83.88
2022-12-26T12:01:42.024Z,83.95
2022-12-26T12:04:48.515Z,84.00
2022-12-26T12:08:16.296Z,83.98
2022-12-26T12:11:35.706Z,83.86
2022-12-26T12:14:54.361Z,83.88
2022-12-26T12:18:35.957Z,83.98
2022-12-26T12:22:10.203Z,84.08
2022-12-26T12:25:39.726Z,84.05
2022-12-26T12:28:52.630Z,83.96
2022-12-26T12:32:11.918Z,83.92
2022-12-26T12:35:46.771Z,83.73
2022-12-26T12:39:54.100Z,83.63
2022-12-26T12:43:23.939Z,83.60
2022-12-26T12:47:07.792Z,83.72
2022-12-26T12:50:32.907Z,83.78
2022-12-26T12:54:17.810Z,83.71
2022-12-26T12:57:47.021Z,83.85
2022-12-26T13:01:09.225Z,83.90
2022-12-26T13:04:38.839Z,83.83
2022-12-26T13:07:51.869Z,83.89
2022-12-26T13:11:09.924Z,84.02
2022-12-26T13:14:42.676Z,84.05
2022-12-26T13:18:27.267Z,84.05
2022-12-26T13:21:33.217Z,84.07
2022-12-26T13:24:59.857Z,84.03
2022-12-26T13:28:10.908Z,84.06
2022-12-26T13:31:25.738Z,83.96
2022-12-26T13:34:36.044Z,83.86
2022-12-26T13:37:59.116Z,83.81
2022-12-26T13:41:34.550Z,83.81
2022-12-26T13:44:41.841Z,83.78
2022-12-26T13:47:51.179Z,83.79
2022-12-26T13:51:11.241Z,83.72
2022-12-26T13:54:21.919Z,83.76
2022-12-26T13:57:50.004Z,83.75
2022-12-26T14:01:02.015Z,83.64
2022-12-26T14:04:32.469Z,83.70
2022-12-26T14:08:16.518Z,83.78
2022-12-26T14:11:50.810Z,83.90
2022-12-26T14:15:17.704Z,83.96
2022-12-26T14:18:36.771Z,83.89
2022-12-26T14:21:41.535Z,83.85
2022-12-26T14:29:00.801Z,83.75
2022-12-26T14:32:39.335Z,83.78
2022-12-26T14:35:57.065Z,83.84
2022-12-26T14:39:17.983Z,83.83
2022-12-26T14:42:58.774Z,83.86
2022-12-26T14:46:06.174Z,83.97
2022-12-26T14:49:41.413Z,83.88
2022-12-26T14:52:54.570Z,83.92
2022-12-26T14:56:24.985Z,83.88
2022-12-26T14:59:45.765Z,83.89
2022-12-26T15:02:51.631Z,83.69
2022-12-26T15:06:00.160Z,83.51
2022-12-26T15:09:52.741Z,83.61
2022-12-26T15:13:29.186Z,83.72
2022-12-26T15:16:44.528Z,83.72
2022-12-26T15:20:17.515Z,83.76
2022-12-26T15:23:50.876Z,83.76
2022-12-26T15:27:35.830Z,83.82
2022-12-26T15:31:13.416Z,83.77
2022-12-26T15:34:55.289Z,83.72
2022-12-26T15:38:24.465Z,83.74
2022-12-26T15:41:41.091Z,83.66
2022-12-26T15:45:04.816Z,83.56
2022-12-26T15:48:40.688Z,83.62
2022-12-26T15:52:16.267Z,83.61
2022-12-26T15:55:42.729Z,83.62
2022-12-26T15:59:15.324Z,83.49
2022-12-26T16:02:44.533Z,83.46
2022-12-26T16:06:14.811Z,83.45
2022-12-26T16:09:50.789Z,83.45
2022-12-26T16:12:58.561Z,83.44
2022-12-26T16:16:08.628Z,83.29
2022-12-26T16:19:34.891Z,83.21
2022-12-26T16:22:56.801Z,83.09
2022-12-26T16:26:03.732Z,83.12
2022-12-26T16:29:10.721Z,83.21
2022-12-26T16:32:20.795Z,83.37
2022-12-26T16:35:36.101Z,83.44
2022-12-26T16:38:43.816Z,83.55
2022-12-26T16:41:49.541Z,83.71
2022-12-26T16:44:55.991Z,83.77
2022-12-26T16:48:02.138Z,83.75
2022-12-26T16:51:20.849Z,83.64
2022-12-26T16:54:32.276Z,83.58
2022-12-26T16:57:41.146Z,83.62
2022-12-26T17:00:46.081Z,83.49
2022-12-26T17:04:16.261Z,83.28
2022-12-26T17:07:23.355Z,83.27
2022-12-26T17:10:44.342Z,83.34
2022-12-26T17:13:51.764Z,83.27
2022-12-26T17:17:02.385Z,83.28
2022-12-26T17:20:12.420Z,83.29
2022-12-26T17:23:43.216Z,83.19
2022-12-26T17:26:48.230Z,83.24
2022-12-26T17:30:15.902Z,83.36
2022-12-26T17:33:41.422Z,83.40
2022-12-26T17:37:17.951Z,83.45
2022-12-26T17:39:55.792Z,83.48
2022-12-26T17:43:06.253Z,83.39
2022-12-26T17:46:12.509Z,83.27
2022-12-26T17:49:18.853Z,83.20
2022-12-26T17:52:29.469Z,83.11
2022-12-26T17:55:38.504Z,83.12
2022-12-26T17:58:43.874Z,83.12
2022-12-26T18:01:49.696Z,83.12
2022-12-26T18:04:58.508Z,83.17
2022-12-26T18:08:05.722Z,83.26
2022-12-26T18:11:14.465Z,83.32
2022-12-26T18:14:24.498Z,83.37
2022-12-26T18:17:32.180Z,83.39
2022-12-26T18:20:42.142Z,83.42
2022-12-26T18:23:48.262Z,83.46
2022-12-26T18:26:54.238Z,83.34
2022-12-26T18:30:01.696Z,83.26
2022-12-26T18:33:08.639Z,83.36
2022-12-26T18:36:16.624Z,83.35
2022-12-26T18:39:21.675Z,83.31
2022-12-26T18:42:29.181Z,83.31
2022-12-26T18:45:35.656Z,83.27
2022-12-26T18:48:44.673Z,83.23
2022-12-26T18:51:50.123Z,83.24
2022-12-26T18:54:57.909Z,83.31
2022-12-26T18:58:03.859Z,83.38
2022-12-26T19:01:10.174Z,83.42
2022-12-26T19:04:15.930Z,83.37
2022-12-26T19:07:22.612Z,83.45
2022-12-26T19:10:28.931Z,83.56
2022-12-26T19:13:35.399Z,83.61
2022-12-26T19:16:41.345Z,83.51
2022-12-26T19:19:48.030Z,83.41
2022-12-26T19:22:55.155Z,83.35
2022-12-26T19:26:01.364Z,83.27
2022-12-26T19:29:09.721Z,83.18
2022-12-26T19:32:15.347Z,83.14
2022-12-26T19:35:22.064Z,83.15
2022-12-26T19:38:27.476Z,83.15
2022-12-26T19:41:33.115Z,83.19
2022-12-26T19:44:39.418Z,83.21
2022-12-26T19:47:46.410Z,83.18
2022-12-26T19:50:56.331Z,83.25
2022-12-26T19:54:02.268Z,83.25
2022-12-26T19:57:07.834Z,83.20
2022-12-26T20:00:14.266Z,83.11
2022-12-26T20:03:19.685Z,83.09
2022-12-26T20:06:31.331Z,83.09
2022-12-26T20:09:36.725Z,83.09
2022-12-26T20:12:42.901Z,83.11
2022-12-26T20:15:49.191Z,83.19
2022-12-26T20:18:56.854Z,83.18
2022-12-26T20:22:03.748Z,83.11
2022-12-26T20:25:09.752Z,83.06
2022-12-26T20:28:15.661Z,83.03
2022-12-26T20:31:25.123Z,82.99
2022-12-26T20:34:31.741Z,82.96
2022-12-26T20:37:38.540Z,82.93
2022-12-26T20:40:49.754Z,83.01
2022-12-26T20:43:51.164Z,82.97
2022-12-26T20:46:58.875Z,83.03
2022-12-26T20:50:05.275Z,82.92
2022-12-26T20:53:11.505Z,82.76
2022-12-26T20:56:20.621Z,82.75
2022-12-26T20:59:26.360Z,82.74
2022-12-26T21:02:32.378Z,82.72
2022-12-26T21:05:42.363Z,82.84
2022-12-26T21:08:48.813Z,82.92
2022-12-26T21:11:55.816Z,83.03
2022-12-26T21:15:03.403Z,83.02
2022-12-26T21:18:09.142Z,83.03
2022-12-26T21:21:23.919Z,83.02
2022-12-26T21:24:37.031Z,82.94
2022-12-26T21:27:43.106Z,82.94
2022-12-26T21:30:49.287Z,82.91
2022-12-26T21:33:54.287Z,82.88
2022-12-26T21:37:17.802Z,82.85
2022-12-26T21:40:24.654Z,82.89
2022-12-26T21:43:32.672Z,82.91
2022-12-26T21:46:39.038Z,82.86
2022-12-26T21:49:46.204Z,82.79
2022-12-26T21:52:53.259Z,82.80
2022-12-26T21:56:01.915Z,82.77
2022-12-26T21:59:26.016Z,82.69
2022-12-26T22:02:53.536Z,82.65
2022-12-26T22:06:03.674Z,82.71
2022-12-26T22:09:11.078Z,82.68
2022-12-26T22:12:34.607Z,82.62
2022-12-26T22:15:59.884Z,82.58
2022-12-26T22:19:06.467Z,82.61
2022-12-26T22:22:12.282Z,82.58
2022-12-26T22:25:18.284Z,82.59
2022-12-26T22:28:23.874Z,82.62
2022-12-26T22:31:43.457Z,82.57
2022-12-26T22:34:49.115Z,82.58
2022-12-26T22:37:54.731Z,82.70
2022-12-26T22:41:09.546Z,82.71
2022-12-26T22:44:15.574Z,82.68
2022-12-26T22:47:21.452Z,82.61
2022-12-26T22:50:34.676Z,82.62
2022-12-26T22:53:43.293Z,82.61
2022-12-26T22:56:50.885Z,82.60
2022-12-26T23:00:11.808Z,82.61
2022-12-26T23:03:04.174Z,82.62
2022-12-26T23:06:12.367Z,82.54
2022-12-26T23:09:20.949Z,82.57
2022-12-26T23:12:47.098Z,82.58
2022-12-26T23:16:14.153Z,82.57
2022-12-26T23:19:46.069Z,82.52
2022-12-26T23:22:53.681Z,82.40
2022-12-26T23:25:59.201Z,82.22
2022-12-26T23:29:26.416Z,82.25
2022-12-26T23:32:32.397Z,82.21
2022-12-26T23:35:41.495Z,82.05
2022-12-26T23:38:47.602Z,81.88
2022-12-26T23:41:53.965Z,81.88
2022-12-26T23:45:00.374Z,81.74
2022-12-26T23:48:06.443Z,81.75
2022-12-26T23:51:20.311Z,81.83
2022-12-26T23:54:25.464Z,81.95
2022-12-26T23:57:31.476Z,81.99
